createdAt,value
2022-12-25T00:01:14.053Z,70.38
2022-12-25T00:02:23.881Z,71.41
2022-12-25T00:03:33.346Z,71.93
2022-12-25T00:05:59.399Z,70.56
2022-12-25T00:07:07.913Z,68.96
2022-12-25T00:09:53.527Z,70.10
2022-12-25T00:11:06.830Z,70.78
2022-12-25T00:12:16.041Z,70.10
2022-12-25T00:14:40.854Z,70.34
2022-12-25T00:15:51.444Z,70.51
2022-12-25T00:17:00.347Z,70.76
2022-12-25T00:19:24.562Z,70.52
2022-12-25T00:20:33.930Z,71.12
2022-12-25T00:21:42.865Z,71.82
2022-12-25T00:22:52.468Z,71.77
2022-12-25T00:24:03.301Z,70.76
2022-12-25T00:25:12.737Z,71.49
2022-12-25T00:27:41.653Z,69.51
2022-12-25T00:28:56.233Z,70.21
2022-12-25T00:31:25.247Z,68.96
2022-12-25T00:33:55.855Z,70.27
2022-12-25T00:35:06.438Z,70.49
2022-12-25T00:36:18.402Z,71.62
2022-12-25T00:37:27.452Z,71.05
2022-12-25T00:38:39.306Z,71.37
2022-12-25T00:39:49.348Z,71.41
2022-12-25T00:40:59.037Z,71.33
2022-12-25T00:42:19.282Z,71.24
2022-12-25T00:43:28.951Z,72.04
2022-12-25T00:44:39.197Z,71.73
2022-12-25T00:45:59.735Z,71.16
2022-12-25T00:47:08.931Z,71.69
2022-12-25T00:48:18.580Z,72.40
2022-12-25T00:49:27.536Z,72.47
2022-12-25T00:50:40.910Z,73.30
2022-12-25T00:51:51.240Z,72.44
2022-12-25T00:52:59.755Z,71.81
2022-12-25T00:54:08.683Z,72.22
2022-12-25T00:55:18.474Z,71.54
2022-12-25T00:56:28.314Z,70.58
2022-12-25T00:57:38.049Z,71.35
2022-12-25T00:58:48.227Z,71.64
2022-12-25T00:59:57.114Z,72.11
2022-12-25T01:01:07.205Z,71.68
2022-12-25T01:02:25.991Z,69.52
2022-12-25T01:03:35.024Z,69.23
2022-12-25T01:06:02.437Z,71.09
2022-12-25T01:07:11.481Z,71.29
2022-12-25T01:08:20.428Z,71.04
2022-12-25T01:09:47.562Z,71.31
2022-12-25T01:12:18.786Z,72.63
2022-12-25T01:13:29.490Z,72.11
2022-12-25T01:14:38.033Z,72.21
2022-12-25T01:15:47.578Z,73.12
2022-12-25T01:16:57.293Z,72.45
2022-12-25T01:19:22.702Z,73.08
2022-12-25T01:20:31.962Z,72.87
2022-12-25T01:21:41.666Z,71.97
2022-12-25T01:22:51.073Z,72.83
2022-12-25T01:24:00.626Z,73.49
2022-12-25T01:25:11.175Z,71.81
2022-12-25T01:26:22.995Z,71.91
2022-12-25T01:27:34.138Z,72.05
2022-12-25T01:28:53.934Z,71.65
2022-12-25T01:30:03.043Z,71.33
2022-12-25T01:31:13.845Z,71.58
2022-12-25T01:32:23.399Z,72.15
2022-12-25T01:33:32.064Z,72.47
2022-12-25T01:34:42.192Z,73.28
2022-12-25T01:35:50.846Z,72.74
2022-12-25T01:37:00.211Z,71.30
2022-12-25T01:38:09.317Z,71.17
2022-12-25T01:39:18.292Z,71.83
2022-12-25T01:40:28.315Z,72.42
2022-12-25T01:41:37.055Z,71.84
2022-12-25T01:42:46.786Z,72.73
2022-12-25T01:44:07.017Z,71.64
2022-12-25T01:45:35.723Z,70.99
2022-12-25T01:46:46.004Z,71.14
2022-12-25T01:47:55.579Z,71.53
2022-12-25T01:50:41.728Z,71.25
2022-12-25T01:52:04.192Z,71.32
2022-12-25T01:53:13.925Z,72.30
2022-12-25T01:55:50.970Z,71.54
2022-12-25T01:57:03.211Z,71.42
2022-12-25T01:58:12.500Z,71.51
2022-12-25T01:59:24.301Z,70.63
2022-12-25T02:01:49.776Z,71.62
2022-12-25T02:02:59.501Z,72.28
2022-12-25T02:04:39.372Z,71.20
2022-12-25T02:05:49.355Z,71.64
2022-12-25T02:08:28.852Z,71.17
2022-12-25T02:09:39.690Z,71.54
2022-12-25T02:10:49.170Z,71.32
2022-12-25T02:11:58.708Z,72.06
2022-12-25T02:13:08.049Z,72.58
2022-12-25T02:14:17.125Z,72.66
2022-12-25T02:15:30.485Z,72.84
2022-12-25T02:16:57.768Z,72.83
2022-12-25T02:18:13.971Z,72.06
2022-12-25T02:21:12.112Z,72.91
2022-12-25T02:22:52.180Z,72.31
2022-12-25T02:26:00.276Z,71.65
2022-12-25T02:27:19.491Z,71.90
2022-12-25T02:28:45.629Z,71.40
2022-12-25T02:30:05.623Z,71.72
2022-12-25T02:31:24.655Z,71.92
2022-12-25T02:35:40.854Z,70.43
2022-12-25T02:38:23.516Z,72.08
2022-12-25T02:40:05.171Z,72.59
2022-12-25T02:41:17.637Z,70.91
2022-12-25T02:43:05.164Z,71.63
2022-12-25T02:44:36.013Z,70.97
2022-12-25T02:46:08.372Z,70.01
2022-12-25T02:47:40.593Z,70.59
2022-12-25T02:49:11.830Z,71.04
2022-12-25T02:50:43.083Z,71.13
2022-12-25T02:52:32.539Z,70.24
2022-12-25T02:54:02.751Z,68.63
2022-12-25T02:57:09.643Z,69.14
2022-12-25T02:58:42.221Z,69.50
2022-12-25T03:01:44.070Z,72.13
2022-12-25T03:03:14.764Z,72.67
2022-12-25T03:04:43.834Z,73.34
2022-12-25T03:06:15.688Z,74.55
2022-12-25T03:07:28.137Z,74.42
2022-12-25T03:10:21.879Z,72.37
2022-12-25T03:12:56.768Z,72.45
2022-12-25T03:14:26.626Z,72.82
2022-12-25T03:17:10.277Z,74.08
2022-12-25T03:18:24.420Z,74.26
2022-12-25T03:22:54.925Z,72.19
2022-12-25T03:24:24.050Z,71.07
2022-12-25T03:25:52.503Z,72.18
2022-12-25T03:27:03.414Z,70.53
2022-12-25T03:28:12.341Z,71.66
2022-12-25T03:29:43.662Z,72.02
2022-12-25T03:31:16.850Z,72.05
2022-12-25T03:32:41.845Z,72.86
2022-12-25T03:34:16.514Z,72.09
2022-12-25T03:37:30.180Z,71.15
2022-12-25T03:40:45.716Z,71.16
2022-12-25T03:44:33.974Z,72.42
2022-12-25T03:46:04.835Z,71.87
2022-12-25T03:47:46.110Z,71.72
2022-12-25T03:51:08.891Z,71.31
2022-12-25T03:52:39.312Z,71.13
2022-12-25T03:54:10.803Z,72.02
2022-12-25T03:57:16.450Z,72.71
2022-12-25T03:58:46.458Z,72.16
2022-12-25T04:00:14.934Z,71.80
2022-12-25T04:01:41.940Z,72.27
2022-12-25T04:04:43.514Z,72.51
2022-12-25T04:06:12.090Z,72.50
2022-12-25T04:07:39.469Z,73.02
2022-12-25T04:09:07.307Z,71.71
2022-12-25T04:10:35.647Z,72.10
2022-12-25T04:12:05.271Z,73.16
2022-12-25T04:13:34.796Z,72.50
2022-12-25T04:15:01.652Z,72.68
2022-12-25T04:16:29.906Z,72.52
2022-12-25T04:17:57.749Z,73.36
2022-12-25T04:19:24.687Z,72.78
2022-12-25T04:20:53.010Z,72.25
2022-12-25T04:22:19.783Z,72.45
2022-12-25T04:23:48.751Z,73.45
2022-12-25T04:25:15.479Z,73.90
2022-12-25T04:26:44.479Z,74.68
2022-12-25T04:28:12.453Z,74.25
2022-12-25T04:29:39.208Z,73.54
2022-12-25T04:31:06.768Z,73.05
2022-12-25T04:32:34.996Z,73.39
2022-12-25T04:34:03.260Z,73.33
2022-12-25T04:35:31.225Z,73.31
2022-12-25T04:36:40.865Z,73.34
2022-12-25T04:37:50.599Z,73.76
2022-12-25T04:38:59.707Z,73.50
2022-12-25T04:40:10.443Z,73.24
2022-12-25T04:41:20.028Z,73.97
2022-12-25T04:44:03.111Z,74.78
2022-12-25T04:45:11.858Z,73.18
2022-12-25T04:46:21.966Z,74.13
2022-12-25T04:47:32.589Z,73.85
2022-12-25T04:48:42.889Z,74.47
2022-12-25T04:49:51.893Z,74.50
2022-12-25T04:52:37.685Z,74.37
2022-12-25T04:53:48.800Z,74.05
2022-12-25T04:54:58.044Z,73.65
2022-12-25T04:56:07.687Z,74.01
2022-12-25T04:57:17.444Z,73.80
2022-12-25T04:58:26.345Z,74.40
2022-12-25T04:59:37.291Z,75.21
2022-12-25T05:00:46.323Z,75.67
2022-12-25T05:01:55.535Z,76.01
2022-12-25T05:03:05.394Z,75.80
2022-12-25T05:04:16.330Z,74.45
2022-12-25T05:06:41.541Z,72.97
2022-12-25T05:09:05.716Z,72.96
2022-12-25T05:10:15.359Z,72.52
2022-12-25T05:11:24.495Z,73.51
2022-12-25T05:13:48.824Z,72.89
2022-12-25T05:14:57.755Z,72.96
2022-12-25T05:16:15.690Z,73.78
2022-12-25T05:17:24.460Z,73.50
2022-12-25T05:18:35.574Z,72.89
2022-12-25T05:19:45.219Z,73.11
2022-12-25T05:20:55.541Z,73.92
2022-12-25T05:22:04.349Z,74.04
2022-12-25T05:23:13.388Z,73.27
2022-12-25T05:24:28.405Z,73.06
2022-12-25T05:26:55.943Z,72.71
2022-12-25T05:28:06.739Z,73.60
2022-12-25T05:29:16.079Z,73.44
2022-12-25T05:30:26.052Z,73.59
2022-12-25T05:31:35.140Z,72.65
2022-12-25T05:33:59.510Z,72.22
2022-12-25T05:35:12.422Z,69.87
2022-12-25T05:36:22.005Z,71.01
2022-12-25T05:37:31.693Z,71.01
2022-12-25T05:38:41.365Z,71.35
2022-12-25T05:41:30.728Z,70.03
2022-12-25T05:42:37.614Z,71.02
2022-12-25T05:43:46.268Z,71.94
2022-12-25T05:44:55.928Z,71.54
2022-12-25T05:46:09.926Z,70.26
2022-12-25T05:47:19.173Z,71.07
2022-12-25T05:48:28.717Z,70.04
2022-12-25T05:49:37.690Z,70.35
2022-12-25T05:50:46.938Z,70.59
2022-12-25T05:51:56.676Z,71.05
2022-12-25T05:53:08.598Z,69.18
2022-12-25T05:54:18.163Z,70.20
2022-12-25T05:55:26.787Z,68.45
2022-12-25T05:56:38.083Z,68.83
2022-12-25T05:57:47.065Z,68.36
2022-12-25T05:58:56.873Z,69.63
2022-12-25T06:01:25.813Z,69.72
2022-12-25T06:02:36.373Z,70.88
2022-12-25T06:03:46.711Z,71.19
2022-12-25T06:04:55.459Z,71.66
2022-12-25T06:07:19.702Z,71.80
2022-12-25T06:08:29.237Z,71.05
2022-12-25T06:09:37.868Z,70.89
2022-12-25T06:10:47.089Z,71.31
2022-12-25T06:11:56.166Z,70.93
2022-12-25T06:13:04.889Z,71.04
2022-12-25T06:14:16.011Z,70.53
2022-12-25T06:15:24.537Z,70.39
2022-12-25T06:16:37.929Z,70.65
2022-12-25T06:17:44.963Z,69.88
2022-12-25T06:18:53.644Z,70.74
2022-12-25T06:20:02.370Z,70.10
2022-12-25T06:21:13.619Z,70.75
2022-12-25T06:22:22.873Z,70.56
2022-12-25T06:23:32.645Z,71.40
2022-12-25T06:24:43.877Z,71.89
2022-12-25T06:25:52.460Z,71.92
2022-12-25T06:27:01.367Z,72.08
2022-12-25T06:28:11.030Z,72.46
2022-12-25T06:29:19.799Z,72.95
2022-12-25T06:30:28.766Z,72.76
2022-12-25T06:31:38.672Z,71.47
2022-12-25T06:32:47.996Z,71.60
2022-12-25T06:33:56.652Z,72.08
2022-12-25T06:35:07.023Z,72.63
2022-12-25T06:36:26.112Z,71.42
2022-12-25T06:37:34.922Z,71.19
2022-12-25T06:38:44.947Z,71.92
2022-12-25T06:39:53.976Z,71.78
2022-12-25T06:41:12.236Z,72.18
2022-12-25T06:42:21.648Z,72.19
2022-12-25T06:43:30.444Z,70.63
2022-12-25T06:44:39.907Z,69.45
2022-12-25T06:45:50.063Z,69.55
2022-12-25T06:47:00.121Z,69.00
2022-12-25T06:48:09.082Z,69.94
2022-12-25T06:49:17.607Z,71.16
2022-12-25T06:50:26.356Z,71.38
2022-12-25T06:51:35.435Z,71.68
2022-12-25T06:52:44.031Z,72.33
2022-12-25T06:53:54.232Z,71.97
2022-12-25T06:55:04.042Z,71.67
2022-12-25T06:56:16.899Z,72.28
2022-12-25T06:57:25.949Z,71.12
2022-12-25T06:58:35.579Z,71.51
2022-12-25T06:59:49.899Z,71.90
2022-12-25T07:02:19.589Z,71.19
2022-12-25T07:03:30.682Z,71.03
2022-12-25T07:04:41.795Z,69.88
2022-12-25T07:05:51.467Z,70.40
2022-12-25T07:07:08.005Z,70.11
2022-12-25T07:08:11.467Z,70.24
2022-12-25T07:09:20.470Z,71.57
2022-12-25T07:10:29.561Z,70.75
2022-12-25T07:11:38.148Z,71.05
2022-12-25T07:12:46.649Z,71.68
2022-12-25T07:13:56.202Z,71.37
2022-12-25T07:15:06.314Z,70.93
2022-12-25T07:16:16.679Z,71.07
2022-12-25T07:17:25.263Z,70.73
2022-12-25T07:18:35.924Z,71.78
2022-12-25T07:19:46.336Z,72.16
2022-12-25T07:20:59.191Z,71.27
2022-12-25T07:22:08.904Z,72.58
2022-12-25T07:23:17.531Z,72.88
2022-12-25T07:24:26.156Z,72.70
2022-12-25T07:25:37.562Z,73.26
2022-12-25T07:26:48.876Z,72.54
2022-12-25T07:27:57.417Z,72.82
2022-12-25T07:29:06.509Z,72.27
2022-12-25T07:30:17.875Z,72.07
2022-12-25T07:31:26.772Z,70.75
2022-12-25T07:32:35.574Z,71.82
2022-12-25T07:33:45.339Z,72.08
2022-12-25T07:34:53.846Z,71.15
2022-12-25T07:36:04.738Z,70.95
2022-12-25T07:37:13.261Z,71.68
2022-12-25T07:38:22.371Z,71.98
2022-12-25T07:39:31.000Z,71.58
2022-12-25T07:40:39.688Z,71.67
2022-12-25T07:41:48.353Z,71.83
2022-12-25T07:42:58.408Z,72.46
2022-12-25T07:44:07.379Z,72.64
2022-12-25T07:45:16.110Z,72.33
2022-12-25T07:46:26.263Z,70.49
2022-12-25T07:48:50.131Z,70.57
2022-12-25T07:49:59.883Z,70.66
2022-12-25T07:51:12.812Z,69.87
2022-12-25T07:52:22.037Z,69.71
2022-12-25T07:53:31.585Z,69.81
2022-12-25T07:54:40.626Z,69.48
2022-12-25T07:55:58.575Z,69.79
2022-12-25T07:57:08.429Z,70.32
2022-12-25T07:58:23.139Z,70.99
2022-12-25T07:59:28.548Z,71.78
2022-12-25T08:01:52.642Z,71.72
2022-12-25T08:03:02.176Z,72.39
2022-12-25T08:04:12.274Z,72.35
2022-12-25T08:05:20.965Z,71.28
2022-12-25T08:06:32.303Z,71.66
2022-12-25T08:07:42.180Z,71.97
2022-12-25T08:08:51.083Z,71.76
2022-12-25T08:09:59.728Z,71.11
2022-12-25T08:11:10.258Z,71.21
2022-12-25T08:13:34.185Z,71.34
2022-12-25T08:14:43.749Z,70.97
2022-12-25T08:16:02.259Z,70.73
2022-12-25T08:17:11.426Z,71.37
2022-12-25T08:19:35.476Z,70.76
2022-12-25T08:20:44.703Z,70.80
2022-12-25T08:21:53.243Z,71.08
2022-12-25T08:23:03.383Z,70.38
2022-12-25T08:24:12.212Z,69.62
2022-12-25T08:25:21.160Z,70.25
2022-12-25T08:26:30.889Z,69.55
2022-12-25T08:27:39.398Z,70.55
2022-12-25T08:28:49.211Z,71.29
2022-12-25T08:29:57.881Z,71.72
2022-12-25T08:31:10.675Z,72.42
2022-12-25T08:32:19.457Z,72.08
2022-12-25T08:33:30.116Z,72.15
2022-12-25T08:34:39.013Z,71.47
2022-12-25T08:35:48.545Z,71.37
2022-12-25T08:36:57.617Z,70.95
2022-12-25T08:38:06.877Z,71.56
2022-12-25T08:39:16.280Z,71.85
2022-12-25T08:40:25.628Z,70.80
2022-12-25T08:41:37.777Z,71.28
2022-12-25T08:42:47.634Z,71.40
2022-12-25T08:43:56.380Z,71.03
2022-12-25T08:45:06.484Z,71.15
2022-12-25T08:47:31.138Z,70.13
2022-12-25T08:48:45.845Z,69.74
2022-12-25T08:49:55.000Z,70.28
2022-12-25T08:52:21.241Z,71.32
2022-12-25T08:53:29.968Z,72.01
2022-12-25T08:55:58.523Z,71.32
2022-12-25T08:57:07.432Z,71.27
2022-12-25T08:59:31.711Z,71.37
2022-12-25T09:00:41.028Z,70.96
2022-12-25T09:03:05.065Z,70.30
2022-12-25T09:04:13.897Z,71.08
2022-12-25T09:05:22.680Z,71.50
2022-12-25T09:06:31.458Z,69.72
2022-12-25T09:07:39.987Z,70.67
2022-12-25T09:08:49.811Z,70.40
2022-12-25T09:09:58.717Z,70.96
2022-12-25T09:11:11.502Z,71.67
2022-12-25T09:12:21.885Z,71.61
2022-12-25T09:13:31.000Z,71.72
2022-12-25T09:14:39.643Z,69.80
2022-12-25T09:15:49.614Z,70.22
2022-12-25T09:16:58.370Z,71.06
2022-12-25T09:18:08.406Z,71.09
2022-12-25T09:19:17.145Z,70.78
2022-12-25T09:20:26.990Z,71.83
2022-12-25T09:21:36.310Z,70.92
2022-12-25T09:22:45.910Z,70.91
2022-12-25T09:23:54.760Z,70.56
2022-12-25T09:25:04.871Z,70.86
2022-12-25T09:27:31.733Z,70.77
2022-12-25T09:28:45.349Z,69.94
2022-12-25T09:29:52.335Z,70.20
2022-12-25T09:31:01.021Z,70.83
2022-12-25T09:32:09.767Z,71.14
2022-12-25T09:33:19.482Z,70.79
2022-12-25T09:34:28.546Z,70.50
2022-12-25T09:35:37.298Z,69.87
2022-12-25T09:36:46.582Z,70.22
2022-12-25T09:37:55.096Z,70.88
2022-12-25T09:39:05.595Z,71.70
2022-12-25T09:40:18.677Z,71.45
2022-12-25T09:41:37.812Z,72.18
2022-12-25T09:44:07.573Z,71.44
2022-12-25T09:45:19.836Z,72.39
2022-12-25T09:46:36.977Z,72.74
2022-12-25T09:47:46.245Z,73.25
2022-12-25T09:49:05.216Z,72.99
2022-12-25T09:51:36.281Z,72.89
2022-12-25T09:55:38.568Z,71.84
2022-12-25T09:56:48.539Z,71.73
2022-12-25T10:00:50.652Z,71.70
2022-12-25T10:04:02.452Z,70.94
2022-12-25T10:05:36.124Z,70.65
2022-12-25T10:06:57.942Z,69.71
2022-12-25T10:08:45.466Z,69.28
2022-12-25T10:11:40.963Z,69.47
2022-12-25T10:13:09.784Z,70.54
2022-12-25T10:14:38.881Z,70.26
2022-12-25T10:17:30.993Z,71.60
2022-12-25T10:18:52.717Z,71.81
2022-12-25T10:20:08.379Z,71.48
2022-12-25T10:21:18.687Z,71.10
2022-12-25T10:22:33.591Z,71.30
2022-12-25T10:25:06.263Z,72.50
2022-12-25T10:26:19.703Z,72.84
2022-12-25T10:27:32.991Z,73.02
2022-12-25T10:28:45.327Z,71.93
2022-12-25T10:29:54.479Z,72.63
2022-12-25T10:31:07.263Z,70.88
2022-12-25T10:33:32.528Z,71.05
2022-12-25T10:34:43.214Z,71.41
2022-12-25T10:35:52.488Z,71.82
2022-12-25T10:37:02.164Z,71.71
2022-12-25T10:38:19.997Z,71.26
2022-12-25T10:39:29.816Z,71.13
2022-12-25T10:40:58.591Z,70.68
2022-12-25T10:42:19.846Z,70.81
2022-12-25T10:43:53.164Z,70.88
2022-12-25T10:46:24.437Z,70.23
2022-12-25T10:49:00.763Z,69.68
2022-12-25T10:50:13.773Z,70.55
2022-12-25T10:51:39.267Z,70.48
2022-12-25T10:52:55.716Z,69.97
2022-12-25T10:54:25.163Z,70.38
2022-12-25T10:55:33.811Z,69.30
2022-12-25T10:56:58.512Z,69.59
2022-12-25T10:58:07.120Z,70.45
2022-12-25T10:59:15.629Z,70.39
2022-12-25T11:00:30.331Z,71.13
2022-12-25T11:02:54.587Z,70.90
2022-12-25T11:04:03.750Z,71.06
2022-12-25T11:05:31.686Z,70.02
2022-12-25T11:06:41.237Z,70.63
2022-12-25T11:07:56.366Z,70.60
2022-12-25T11:09:11.920Z,70.01
2022-12-25T11:10:33.902Z,70.39
2022-12-25T11:12:59.910Z,70.05
2022-12-25T11:14:12.481Z,69.55
2022-12-25T11:15:41.118Z,69.56
2022-12-25T11:16:49.997Z,69.12
2022-12-25T11:17:58.643Z,69.89
2022-12-25T11:19:31.150Z,68.82
2022-12-25T11:20:47.261Z,68.94
2022-12-25T11:22:01.652Z,70.27
2022-12-25T11:23:10.173Z,70.20
2022-12-25T11:24:21.388Z,70.75
2022-12-25T11:26:54.933Z,70.26
2022-12-25T11:28:06.006Z,71.11
2022-12-25T11:29:35.978Z,71.62
2022-12-25T11:30:48.719Z,70.53
2022-12-25T11:32:00.587Z,70.69
2022-12-25T11:33:11.981Z,70.64
2022-12-25T11:34:38.092Z,70.57
2022-12-25T11:35:53.467Z,70.12
2022-12-25T11:37:06.888Z,71.18
2022-12-25T11:38:15.513Z,71.10
2022-12-25T11:39:28.258Z,71.00
2022-12-25T11:40:44.829Z,71.26
2022-12-25T11:42:00.371Z,70.81
2022-12-25T11:43:37.165Z,70.81
2022-12-25T11:45:13.708Z,71.16
2022-12-25T11:48:10.361Z,69.43
2022-12-25T11:49:20.914Z,69.83
2022-12-25T11:50:42.533Z,70.30
2022-12-25T11:51:55.787Z,70.11
2022-12-25T11:53:08.454Z,70.71
2022-12-25T11:55:50.000Z,69.61
2022-12-25T11:58:37.664Z,70.49
2022-12-25T12:01:28.066Z,70.28
2022-12-25T12:02:47.565Z,70.14
2022-12-25T12:03:59.145Z,70.25
2022-12-25T12:06:56.663Z,70.54
2022-12-25T12:08:06.611Z,70.58
2022-12-25T12:09:31.712Z,69.48
2022-12-25T12:14:08.807Z,70.98
2022-12-25T12:16:52.989Z,72.45
2022-12-25T12:19:40.060Z,72.13
2022-12-25T12:21:10.232Z,71.94
2022-12-25T13:02:53.777Z,73.14
2022-12-25T13:05:48.768Z,71.43
2022-12-25T13:08:48.828Z,71.92
2022-12-25T13:11:28.538Z,71.75
2022-12-25T13:12:38.728Z,72.01
2022-12-25T13:15:10.797Z,71.71
2022-12-25T13:16:27.599Z,72.35
2022-12-25T13:17:37.369Z,72.88
2022-12-25T13:18:46.973Z,72.88
2022-12-25T13:19:58.961Z,72.21
2022-12-25T13:21:10.100Z,72.46
2022-12-25T13:22:26.181Z,72.57
2022-12-25T13:23:37.204Z,73.17
2022-12-25T13:26:14.102Z,74.02
2022-12-25T13:27:25.419Z,73.91
2022-12-25T13:28:35.711Z,74.16
2022-12-25T13:29:44.804Z,73.81
2022-12-25T13:32:31.433Z,73.81
2022-12-25T13:33:43.347Z,74.04
2022-12-25T13:34:53.105Z,74.10
2022-12-25T13:36:02.846Z,74.04
2022-12-25T13:37:17.569Z,73.89
2022-12-25T13:38:27.925Z,74.34
2022-12-25T13:39:40.653Z,74.45
2022-12-25T13:41:11.355Z,74.66
2022-12-25T13:43:42.158Z,74.29
2022-12-25T13:46:15.043Z,73.40
2022-12-25T13:47:33.484Z,73.05
2022-12-25T13:48:44.207Z,72.78
2022-12-25T13:49:54.455Z,73.30
2022-12-25T13:51:04.260Z,73.40
2022-12-25T13:52:16.385Z,74.23
2022-12-25T13:53:25.976Z,75.20
2022-12-25T13:54:34.742Z,74.62
2022-12-25T13:55:47.374Z,73.76
2022-12-25T13:56:56.329Z,74.39
2022-12-25T13:58:09.539Z,74.61
2022-12-25T13:59:21.564Z,74.12
2022-12-25T14:01:53.591Z,75.03
2022-12-25T14:03:09.389Z,75.14
2022-12-25T14:04:24.124Z,75.18
2022-12-25T14:05:42.363Z,74.64
2022-12-25T14:06:48.025Z,74.46
2022-12-25T14:07:59.989Z,74.48
2022-12-25T14:09:11.106Z,74.69
2022-12-25T14:10:24.014Z,73.18
2022-12-25T14:11:32.765Z,73.18
2022-12-25T14:12:42.606Z,72.64
2022-12-25T14:15:21.555Z,73.58
2022-12-25T14:16:32.117Z,73.56
2022-12-25T14:17:41.407Z,73.83
2022-12-25T14:20:12.823Z,74.47
2022-12-25T14:21:34.757Z,74.44
2022-12-25T14:24:04.029Z,73.72
2022-12-25T14:25:16.155Z,73.81
2022-12-25T14:26:29.588Z,73.95
2022-12-25T14:27:39.736Z,73.71
2022-12-25T14:28:56.063Z,74.48
2022-12-25T14:30:08.863Z,74.71
2022-12-25T14:31:20.361Z,74.34
2022-12-25T14:33:49.657Z,74.97
2022-12-25T14:35:05.502Z,75.26
2022-12-25T14:36:16.149Z,75.36
2022-12-25T14:37:29.575Z,75.88
2022-12-25T14:38:41.470Z,76.33
2022-12-25T14:41:26.560Z,76.15
2022-12-25T14:42:36.475Z,75.48
2022-12-25T14:43:55.554Z,75.97
2022-12-25T14:45:31.659Z,75.66
2022-12-25T14:46:40.423Z,75.26
2022-12-25T14:47:55.518Z,75.40
2022-12-25T14:49:09.187Z,75.85
2022-12-25T14:51:46.636Z,75.51
2022-12-25T14:52:58.798Z,76.03
2022-12-25T14:55:29.528Z,76.08
2022-12-25T14:56:39.904Z,75.90
2022-12-25T14:59:12.006Z,74.71
2022-12-25T15:00:31.250Z,74.57
2022-12-25T15:01:41.627Z,74.88
2022-12-25T15:02:53.946Z,74.77
2022-12-25T15:07:03.931Z,76.21
2022-12-25T15:09:40.058Z,75.91
2022-12-25T15:11:05.668Z,76.14
2022-12-25T15:12:02.272Z,75.60
2022-12-25T15:13:13.870Z,75.85
2022-12-25T15:14:23.977Z,75.71
2022-12-25T15:15:34.295Z,76.75
2022-12-25T15:18:05.477Z,75.98
2022-12-25T15:19:37.046Z,76.88
2022-12-25T15:20:41.683Z,76.96
2022-12-25T15:21:50.398Z,77.03
2022-12-25T15:23:19.485Z,76.52
2022-12-25T15:25:31.989Z,75.90
2022-12-25T15:26:41.094Z,76.03
2022-12-25T15:27:50.148Z,75.64
2022-12-25T15:28:59.758Z,75.50
2022-12-25T15:30:11.202Z,76.26
2022-12-25T15:31:24.432Z,75.99
2022-12-25T15:32:33.890Z,76.59
2022-12-25T15:33:44.313Z,75.86
2022-12-25T15:34:53.405Z,75.92
2022-12-25T15:36:02.275Z,75.45
2022-12-25T15:37:11.344Z,75.87
2022-12-25T15:38:19.858Z,75.32
2022-12-25T15:39:29.340Z,75.56
2022-12-25T15:40:39.322Z,75.45
2022-12-25T15:42:07.238Z,75.23
2022-12-25T15:43:40.564Z,74.71
2022-12-25T15:44:28.144Z,75.11
2022-12-25T15:45:37.625Z,73.87
2022-12-25T15:46:47.138Z,73.42
2022-12-25T15:47:56.724Z,73.53
2022-12-25T15:49:06.013Z,73.93
2022-12-25T15:50:18.653Z,74.33
2022-12-25T15:51:27.811Z,72.65
2022-12-25T15:52:36.801Z,72.17
2022-12-25T15:53:45.805Z,72.48
2022-12-25T15:54:55.201Z,72.57
2022-12-25T15:56:05.212Z,71.96
2022-12-25T15:57:17.964Z,72.55
2022-12-25T15:58:26.468Z,71.68
2022-12-25T15:59:35.036Z,71.17
2022-12-25T16:00:43.901Z,71.83
2022-12-25T16:01:55.342Z,71.21
2022-12-25T16:04:21.497Z,71.12
2022-12-25T16:05:30.116Z,70.76
2022-12-25T16:06:40.268Z,71.90
2022-12-25T16:07:49.327Z,72.46
2022-12-25T16:08:57.951Z,70.76
2022-12-25T16:10:14.165Z,70.99
2022-12-25T16:12:38.543Z,72.97
2022-12-25T16:13:48.995Z,73.29
2022-12-25T16:14:58.669Z,73.58
2022-12-25T16:16:07.616Z,73.96
2022-12-25T16:17:17.151Z,74.08
2022-12-25T16:18:27.517Z,73.62
2022-12-25T16:19:37.143Z,73.96
2022-12-25T16:20:46.641Z,74.62
2022-12-25T16:21:56.359Z,74.81
2022-12-25T16:24:20.046Z,74.40
2022-12-25T16:25:28.556Z,74.18
2022-12-25T16:26:37.306Z,74.32
2022-12-25T16:27:46.375Z,74.08
2022-12-25T16:28:54.910Z,73.99
2022-12-25T16:30:06.665Z,75.02
2022-12-25T16:31:15.804Z,75.05
2022-12-25T16:32:24.384Z,76.33
2022-12-25T16:33:33.427Z,76.14
2022-12-25T16:34:42.798Z,75.30
2022-12-25T16:35:52.152Z,75.16
2022-12-25T16:37:00.747Z,75.28
2022-12-25T16:38:12.187Z,75.57
2022-12-25T16:39:20.507Z,76.35
2022-12-25T16:40:29.490Z,76.37
2022-12-25T16:41:38.539Z,75.87
2022-12-25T16:42:47.313Z,75.74
2022-12-25T16:43:56.193Z,75.80
2022-12-25T16:45:06.480Z,75.96
2022-12-25T16:47:43.454Z,75.11
2022-12-25T16:48:52.788Z,75.03
2022-12-25T16:50:04.146Z,75.44
2022-12-25T16:51:16.539Z,75.31
2022-12-25T16:52:25.917Z,74.75
2022-12-25T16:53:35.019Z,76.29
2022-12-25T16:54:48.542Z,75.48
2022-12-25T16:57:23.024Z,76.50
2022-12-25T16:58:33.294Z,75.98
2022-12-25T16:59:43.431Z,76.16
2022-12-25T17:00:52.186Z,76.30
2022-12-25T17:02:01.347Z,76.60
2022-12-25T17:03:10.924Z,76.43
2022-12-25T17:04:20.007Z,74.69
2022-12-25T17:05:28.798Z,73.60
2022-12-25T17:06:38.334Z,73.83
2022-12-25T17:07:49.503Z,73.37
2022-12-25T17:08:59.959Z,73.80
2022-12-25T17:10:10.868Z,73.22
2022-12-25T17:11:22.653Z,73.66
2022-12-25T17:12:31.215Z,73.51
2022-12-25T17:13:40.989Z,73.20
2022-12-25T17:14:50.839Z,73.76
2022-12-25T17:17:14.355Z,73.12
2022-12-25T17:18:23.217Z,72.84
2022-12-25T17:19:31.886Z,72.11
2022-12-25T17:21:59.868Z,72.35
2022-12-25T17:23:09.466Z,72.86
2022-12-25T17:24:19.443Z,71.09
2022-12-25T17:25:28.561Z,70.79
2022-12-25T17:26:40.575Z,71.13
2022-12-25T17:29:06.187Z,71.77
2022-12-25T17:30:17.760Z,72.37
2022-12-25T17:31:27.796Z,72.25
2022-12-25T17:32:36.558Z,72.12
2022-12-25T17:35:00.672Z,72.51
2022-12-25T17:37:28.184Z,72.48
2022-12-25T17:38:38.666Z,72.48
2022-12-25T17:39:47.198Z,72.96
2022-12-25T17:40:59.649Z,72.67
2022-12-25T17:42:08.435Z,73.06
2022-12-25T17:43:20.800Z,72.63
2022-12-25T17:44:28.819Z,72.32
2022-12-25T17:45:37.560Z,71.50
2022-12-25T17:46:47.686Z,71.89
2022-12-25T17:47:57.045Z,71.36
2022-12-25T17:49:06.182Z,72.23
2022-12-25T17:51:32.770Z,72.07
2022-12-25T17:52:42.046Z,72.52
2022-12-25T17:53:54.981Z,72.54
2022-12-25T17:55:04.972Z,72.40
2022-12-25T17:56:17.263Z,72.13
2022-12-25T17:57:27.913Z,72.17
2022-12-25T17:58:37.753Z,72.62
2022-12-25T17:59:47.149Z,72.53
2022-12-25T18:02:13.220Z,73.43
2022-12-25T18:04:39.619Z,74.00
2022-12-25T18:05:49.180Z,74.08
2022-12-25T18:06:58.312Z,73.54
2022-12-25T18:08:07.023Z,73.57
2022-12-25T18:09:16.769Z,73.95
2022-12-25T18:10:28.217Z,73.88
2022-12-25T18:11:41.438Z,74.32
2022-12-25T18:12:50.436Z,74.53
2022-12-25T18:15:18.416Z,73.65
2022-12-25T18:16:31.594Z,73.88
2022-12-25T18:17:40.251Z,74.12
2022-12-25T18:18:53.070Z,74.58
2022-12-25T18:21:19.082Z,72.02
2022-12-25T18:22:28.464Z,71.11
2022-12-25T18:23:37.032Z,71.22
2022-12-25T18:24:46.422Z,70.99
2022-12-25T18:25:56.282Z,70.24
2022-12-25T18:27:05.006Z,70.19
2022-12-25T18:28:14.250Z,71.40
2022-12-25T18:29:23.408Z,70.04
2022-12-25T18:30:32.625Z,70.06
2022-12-25T18:31:41.190Z,69.18
2022-12-25T18:32:52.333Z,69.98
2022-12-25T18:34:02.887Z,70.62
2022-12-25T18:35:12.811Z,70.60
2022-12-25T18:36:24.410Z,70.65
2022-12-25T18:37:39.725Z,70.12
2022-12-25T18:38:44.888Z,70.45
2022-12-25T18:39:54.554Z,70.58
2022-12-25T18:41:08.745Z,70.75
2022-12-25T18:42:36.279Z,70.82
2022-12-25T18:43:52.185Z,70.82
2022-12-25T18:44:58.060Z,70.17
2022-12-25T18:46:06.743Z,70.76
2022-12-25T18:47:15.719Z,70.45
2022-12-25T18:48:24.496Z,70.52
2022-12-25T18:49:34.188Z,70.84
2022-12-25T18:50:44.135Z,70.51
2022-12-25T18:51:53.133Z,69.99
2022-12-25T18:53:05.331Z,69.95
2022-12-25T18:54:14.143Z,70.15
2022-12-25T18:55:23.123Z,70.24
2022-12-25T18:56:32.586Z,70.01
2022-12-25T18:58:59.167Z,70.36
2022-12-25T19:00:09.878Z,70.70
2022-12-25T19:01:21.615Z,71.27
2022-12-25T19:02:30.526Z,71.42
2022-12-25T19:03:39.404Z,72.05
2022-12-25T19:04:48.625Z,72.61
2022-12-25T19:05:58.770Z,72.34